createdAt,value
2022-08-12T00:00:09.901Z,35.14
2022-08-12T00:02:56.045Z,35.46
2022-08-12T00:06:01.746Z,35.69
2022-08-12T00:08:55.392Z,35.42
2022-08-12T00:11:43.153Z,35.18
2022-08-12T00:14:29.621Z,35.26
2022-08-12T00:17:15.757Z,35.13
2022-08-12T00:20:01.280Z,36.35
2022-08-12T00:22:59.471Z,35.99
2022-08-12T00:26:21.101Z,36.79
2022-08-12T00:29:06.220Z,36.51
2022-08-12T00:31:51.800Z,36.77
2022-08-12T00:34:37.492Z,36.87
2022-08-12T00:37:23.950Z,36.61
2022-08-12T00:40:11.782Z,36.92
2022-08-12T00:42:41.243Z,37.05
2022-08-12T00:45:09.261Z,37.98
2022-08-12T00:47:37.961Z,38.76
2022-08-12T00:50:06.401Z,38.96
2022-08-12T00:52:35.339Z,39.43
2022-08-12T00:55:05.701Z,38.64
2022-08-12T00:57:38.251Z,38.13
2022-08-12T01:00:12.041Z,38.47
2022-08-12T01:02:42.620Z,40.20
2022-08-12T01:05:41.090Z,39.76
2022-08-12T01:08:27.141Z,39.15
2022-08-12T01:11:14.401Z,38.65
2022-08-12T01:13:48.252Z,38.71
2022-08-12T01:16:22.870Z,39.36
2022-08-12T01:18:52.840Z,39.68
2022-08-12T01:21:51.102Z,39.46
2022-08-12T01:24:36.882Z,40.22
2022-08-12T01:27:07.985Z,40.46
2022-08-12T01:29:42.043Z,41.20
2022-08-12T01:32:12.840Z,42.66
2022-08-12T01:34:45.560Z,41.20
2022-08-12T01:37:14.461Z,40.35
2022-08-12T01:40:33.444Z,41.42
2022-08-12T01:42:32.720Z,42.27
2022-08-12T01:45:02.254Z,41.45
2022-08-12T01:47:47.349Z,41.57
2022-08-12T01:50:40.321Z,43.23
2022-08-12T01:53:16.065Z,43.45
2022-08-12T01:55:46.579Z,41.98
2022-08-12T01:58:29.201Z,41.31
2022-08-12T02:01:08.999Z,42.70
2022-08-12T02:04:16.663Z,44.01
2022-08-12T02:07:52.860Z,43.84
2022-08-12T02:10:56.819Z,43.78
2022-08-12T02:13:50.237Z,43.00
2022-08-12T02:16:30.624Z,43.45
2022-08-12T02:19:29.837Z,43.21
2022-08-12T02:22:17.570Z,43.78
2022-08-12T02:24:46.419Z,44.09
2022-08-12T02:27:17.569Z,43.58
2022-08-12T02:29:45.427Z,43.24
2022-08-12T02:32:13.910Z,43.59
2022-08-12T02:34:43.690Z,43.74
2022-08-12T02:37:15.720Z,43.82
2022-08-12T02:39:48.810Z,44.03
2022-08-12T02:42:19.330Z,43.41
2022-08-12T02:44:51.190Z,43.32
2022-08-12T02:47:58.365Z,44.81
2022-08-12T02:50:10.990Z,44.50
2022-08-12T02:52:39.086Z,44.14
2022-08-12T02:55:28.723Z,43.95
2022-08-12T02:58:07.052Z,44.22
2022-08-12T03:00:37.971Z,44.29
2022-08-12T03:03:11.790Z,43.77
2022-08-12T03:05:58.341Z,45.19
2022-08-12T03:08:32.150Z,45.52
2022-08-12T03:11:11.892Z,45.13
2022-08-12T03:13:45.844Z,45.54
2022-08-12T03:16:14.189Z,45.80
2022-08-12T03:18:46.093Z,46.01
2022-08-12T03:21:17.505Z,45.35
2022-08-12T03:24:07.230Z,44.80
2022-08-12T03:26:37.949Z,44.07
2022-08-12T03:29:07.183Z,44.17
2022-08-12T03:31:34.682Z,44.55
2022-08-12T03:34:05.000Z,45.01
2022-08-12T03:36:35.538Z,44.98
2022-08-12T03:39:36.334Z,45.44
2022-08-12T03:42:38.943Z,45.83
2022-08-12T03:45:52.103Z,46.74
2022-08-12T03:48:39.354Z,47.68
2022-08-12T03:51:25.409Z,47.62
2022-08-12T03:54:11.755Z,48.24
2022-08-12T03:56:58.294Z,48.01
2022-08-12T03:59:44.490Z,47.95
2022-08-12T04:02:16.012Z,47.52
2022-08-12T04:04:45.832Z,47.67
2022-08-12T04:07:13.852Z,47.92
2022-08-12T04:09:43.559Z,48.03
2022-08-12T04:12:40.182Z,47.36
2022-08-12T04:15:14.731Z,47.07
2022-08-12T04:18:06.392Z,46.88
2022-08-12T04:20:30.789Z,47.38
2022-08-12T04:22:58.600Z,47.23
2022-08-12T04:25:28.491Z,47.80
2022-08-12T04:27:55.444Z,47.84
2022-08-12T04:30:32.542Z,47.34
2022-08-12T04:33:00.805Z,47.26
2022-08-12T04:35:28.619Z,46.36
2022-08-12T04:38:00.319Z,46.50
2022-08-12T04:40:30.930Z,45.48
2022-08-12T04:42:58.908Z,45.89
2022-08-12T04:45:26.000Z,45.88
2022-08-12T04:47:53.209Z,45.55
2022-08-12T04:50:33.700Z,45.83
2022-08-12T04:53:03.450Z,45.82
2022-08-12T04:55:30.413Z,45.83
2022-08-12T04:57:57.439Z,45.02
2022-08-12T05:00:24.451Z,45.27
2022-08-12T05:02:52.591Z,46.00
2022-08-12T05:05:22.409Z,46.09
2022-08-12T05:07:54.766Z,46.43
2022-08-12T05:10:33.670Z,46.62
2022-08-12T05:13:07.681Z,45.83
2022-08-12T05:16:03.592Z,45.45
2022-08-12T05:18:29.042Z,44.61
2022-08-12T05:20:59.041Z,44.74
2022-08-12T05:23:27.181Z,44.62
2022-08-12T05:25:57.423Z,44.69
2022-08-12T05:28:27.360Z,43.91
2022-08-12T05:30:54.999Z,43.79
2022-08-12T05:33:25.792Z,43.16
2022-08-12T05:35:52.929Z,42.62
2022-08-12T05:38:38.909Z,41.87
2022-08-12T05:41:19.300Z,41.39
2022-08-12T05:43:54.650Z,41.00
2022-08-12T05:46:23.350Z,40.60
2022-08-12T05:48:51.647Z,40.06
2022-08-12T05:51:19.091Z,40.09
2022-08-12T05:53:46.130Z,39.28
2022-08-12T05:56:24.229Z,39.46
2022-08-12T05:58:53.294Z,39.89
2022-08-12T06:02:10.230Z,38.71
2022-08-12T06:04:09.849Z,38.72
2022-08-12T06:06:41.979Z,39.31
2022-08-12T06:09:11.625Z,39.12
2022-08-12T06:11:53.647Z,39.10
2022-08-12T06:14:28.712Z,38.91
2022-08-12T06:16:57.922Z,39.15
2022-08-12T06:19:25.911Z,38.90
2022-08-12T06:22:12.929Z,39.79
2022-08-12T06:24:39.958Z,39.27
2022-08-12T06:27:07.819Z,38.74
2022-08-12T06:29:35.895Z,38.52
2022-08-12T06:32:27.467Z,38.55
2022-08-12T06:35:25.790Z,38.10
2022-08-12T06:37:51.309Z,37.29
2022-08-12T06:40:42.531Z,37.19
2022-08-12T06:43:09.677Z,37.68
2022-08-12T06:45:45.239Z,37.97
2022-08-12T06:48:13.154Z,38.29
2022-08-12T06:50:40.477Z,38.69
2022-08-12T06:53:09.519Z,38.50
2022-08-12T06:55:36.962Z,38.90
2022-08-12T06:58:10.521Z,37.70
2022-08-12T07:00:38.197Z,37.73
2022-08-12T07:03:22.423Z,37.02
2022-08-12T07:05:50.839Z,36.69
2022-08-12T07:08:18.781Z,36.50
2022-08-12T07:10:53.680Z,37.26
2022-08-12T07:13:20.841Z,37.40
2022-08-12T07:15:47.880Z,36.86
2022-08-12T07:18:20.845Z,37.21
2022-08-12T07:20:53.053Z,36.46
2022-08-12T07:23:20.605Z,36.58
2022-08-12T07:25:48.012Z,37.26
2022-08-12T07:28:23.862Z,36.43
2022-08-12T07:30:55.421Z,36.65
2022-08-12T07:33:29.290Z,37.00
2022-08-12T07:35:59.801Z,37.13
2022-08-12T07:38:33.843Z,37.04
2022-08-12T07:41:14.589Z,37.00
2022-08-12T07:43:51.809Z,36.67
2022-08-12T07:46:22.621Z,36.75
2022-08-12T07:48:52.660Z,36.01
2022-08-12T07:51:25.620Z,36.30
2022-08-12T07:54:00.176Z,35.96
2022-08-12T07:56:28.487Z,36.70
2022-08-12T07:58:59.494Z,36.89
2022-08-12T08:01:26.896Z,36.29
2022-08-12T08:04:18.415Z,36.33
2022-08-12T08:06:47.116Z,36.98
2022-08-12T08:09:17.271Z,36.81
2022-08-12T08:12:19.342Z,37.34
2022-08-12T08:14:48.370Z,36.63
2022-08-12T08:17:17.922Z,37.15
2022-08-12T08:20:02.936Z,36.37
2022-08-12T08:22:41.095Z,36.99
2022-08-12T08:25:35.338Z,36.66
2022-08-12T08:28:00.381Z,36.12
2022-08-12T08:30:29.621Z,35.72
2022-08-12T08:32:56.881Z,35.27
2022-08-12T08:35:26.004Z,36.36
2022-08-12T08:38:17.646Z,36.02
2022-08-12T08:42:17.445Z,36.22
2022-08-12T08:44:06.085Z,35.38
2022-08-12T08:46:38.054Z,36.12
2022-08-12T08:49:06.224Z,35.94
2022-08-12T08:51:34.026Z,35.54
2022-08-12T08:54:01.151Z,35.46
2022-08-12T08:56:31.012Z,34.77
2022-08-12T08:58:58.466Z,35.98
2022-08-12T09:01:26.469Z,34.81
2022-08-12T09:05:07.352Z,34.50
2022-08-12T09:06:59.765Z,33.87
2022-08-12T09:09:34.228Z,33.26
2022-08-12T09:12:33.031Z,34.00
2022-08-12T09:15:16.899Z,33.50
2022-08-12T09:17:57.291Z,33.92
2022-08-12T09:20:29.414Z,33.06
2022-08-12T09:22:58.926Z,33.30
2022-08-12T09:25:26.459Z,34.05
2022-08-12T09:28:05.074Z,33.32
2022-08-12T09:30:41.245Z,32.75
2022-08-12T09:33:15.012Z,33.18
2022-08-12T09:35:47.059Z,32.98
2022-08-12T09:38:32.350Z,32.54
2022-08-12T09:42:08.032Z,32.67
2022-08-12T09:44:06.357Z,31.72
2022-08-12T09:46:53.335Z,31.82
2022-08-12T09:49:23.971Z,32.19
2022-08-12T09:51:54.451Z,31.91
2022-08-12T09:54:33.934Z,31.15
2022-08-12T09:58:44.954Z,31.82
2022-08-12T10:00:13.703Z,31.33
2022-08-12T10:03:31.991Z,31.74
2022-08-12T10:06:26.730Z,32.37
2022-08-12T10:08:52.435Z,32.46
2022-08-12T10:12:10.797Z,32.23
2022-08-12T10:14:35.192Z,32.48
2022-08-12T10:17:08.837Z,32.12
2022-08-12T10:19:38.070Z,32.39
2022-08-12T10:22:16.559Z,32.24
2022-08-12T10:24:43.896Z,32.38
2022-08-12T10:28:04.664Z,33.07
2022-08-12T10:30:39.540Z,32.35
2022-08-12T10:33:18.661Z,32.07
2022-08-12T10:35:46.440Z,32.13
2022-08-12T10:38:38.882Z,32.57
2022-08-12T10:41:21.299Z,32.98
2022-08-12T10:43:55.039Z,32.31
2022-08-12T10:46:30.492Z,31.45
2022-08-12T10:49:05.956Z,29.95
2022-08-12T10:52:04.893Z,30.03
2022-08-12T10:54:36.520Z,29.58
2022-08-12T10:57:03.553Z,29.57
2022-08-12T10:59:39.132Z,30.54
2022-08-12T11:13:14.911Z,29.79
2022-08-12T11:16:18.912Z,29.10
2022-08-12T11:18:31.010Z,29.27
2022-08-12T11:20:58.990Z,29.34
2022-08-12T11:23:36.917Z,28.30
2022-08-12T11:26:08.097Z,28.41
2022-08-12T11:28:37.130Z,27.96
2022-08-12T11:31:07.092Z,27.54
2022-08-12T11:34:05.191Z,27.36
2022-08-12T11:36:24.199Z,26.94
2022-08-12T11:38:53.328Z,26.31
2022-08-12T11:41:30.956Z,25.81
2022-08-12T11:44:20.209Z,25.07
2022-08-12T11:46:51.314Z,25.05
2022-08-12T11:49:32.448Z,24.88
2022-08-12T11:52:03.476Z,25.29
2022-08-12T11:54:31.615Z,25.81
2022-08-12T11:57:02.805Z,25.32
2022-08-12T12:02:20.814Z,24.33
2022-08-12T12:04:52.728Z,24.35
2022-08-12T12:07:33.750Z,24.67
2022-08-12T12:10:14.601Z,24.54
2022-08-12T12:12:49.496Z,23.91
2022-08-12T12:15:24.739Z,23.93
2022-08-12T12:17:55.709Z,23.40
2022-08-12T12:20:26.120Z,22.96
2022-08-12T12:22:57.537Z,23.20
2022-08-12T12:25:59.590Z,23.21
2022-08-12T12:28:36.538Z,23.41
2022-08-12T12:31:00.481Z,22.71
2022-08-12T12:33:57.534Z,22.89
2022-08-12T12:36:20.349Z,23.23
2022-08-12T12:38:51.354Z,24.21
2022-08-12T12:41:18.454Z,23.59
2022-08-12T12:43:56.600Z,24.14
2022-08-12T12:46:31.705Z,24.18
2022-08-12T12:48:58.646Z,25.50
2022-08-12T12:51:49.251Z,24.69
2022-08-12T12:54:13.048Z,24.62
2022-08-12T12:56:44.636Z,24.23
2022-08-12T12:59:55.275Z,24.93
2022-08-12T13:02:07.732Z,24.40
2022-08-12T13:04:37.738Z,23.03
2022-08-12T13:07:06.577Z,23.70
2022-08-12T13:09:36.205Z,22.98
2022-08-12T13:12:10.390Z,22.72
2022-08-12T13:14:39.625Z,22.29
2022-08-12T13:17:07.480Z,22.41
2022-08-12T13:19:43.463Z,23.07
2022-08-12T13:22:19.197Z,22.43
2022-08-12T13:24:52.206Z,22.58
2022-08-12T13:27:28.235Z,22.37
2022-08-12T13:30:06.650Z,23.53
2022-08-12T13:32:34.352Z,22.19
2022-08-12T13:35:03.785Z,23.21
2022-08-12T13:37:43.961Z,22.87
2022-08-12T13:40:18.914Z,23.29
2022-08-12T13:42:49.026Z,23.34
2022-08-12T13:45:18.264Z,23.52
2022-08-12T13:47:57.614Z,23.81
2022-08-12T13:50:32.945Z,24.29
2022-08-12T13:53:23.053Z,24.89
2022-08-12T13:55:59.351Z,24.32
2022-08-12T13:58:28.254Z,24.17
2022-08-12T14:00:58.711Z,24.29
2022-08-12T14:03:28.500Z,24.52
2022-08-12T14:06:15.474Z,25.06
2022-08-12T14:08:43.757Z,24.80
2022-08-12T14:11:12.508Z,24.85
2022-08-12T14:14:05.232Z,25.26
2022-08-12T14:16:37.415Z,23.14
2022-08-12T14:19:22.312Z,23.66
2022-08-12T14:22:00.709Z,23.50
2022-08-12T14:24:35.908Z,24.64
2022-08-12T14:27:09.372Z,24.63
2022-08-12T14:30:05.883Z,24.89
2022-08-12T14:32:35.582Z,25.33
2022-08-12T14:35:08.974Z,24.81
2022-08-12T14:37:57.323Z,25.70
2022-08-12T14:40:27.737Z,26.43
2022-08-12T14:42:56.886Z,26.52
2022-08-12T14:45:37.199Z,27.33
2022-08-12T14:48:14.785Z,27.57
2022-08-12T14:51:03.139Z,28.09
2022-08-12T14:55:38.574Z,28.69
2022-08-12T14:59:24.849Z,28.84
2022-08-12T15:01:54.612Z,28.94
2022-08-12T15:04:26.237Z,29.19
2022-08-12T15:06:53.396Z,29.64
2022-08-12T15:09:29.265Z,29.79
2022-08-12T15:12:03.389Z,30.00
2022-08-12T15:14:32.124Z,30.60
2022-08-12T15:17:02.909Z,30.98
2022-08-12T15:20:07.573Z,31.50
2022-08-12T15:22:38.600Z,31.57
2022-08-12T15:25:07.421Z,32.01
2022-08-12T15:28:05.438Z,32.26
2022-08-12T15:30:31.340Z,32.28
2022-08-12T15:32:59.464Z,32.24
2022-08-12T15:35:38.231Z,32.28
2022-08-12T15:38:20.607Z,32.58
2022-08-12T15:40:52.545Z,32.09
2022-08-12T15:43:52.056Z,32.22
2022-08-12T15:46:15.497Z,32.43
2022-08-12T15:48:47.625Z,32.52
2022-08-12T15:51:58.448Z,32.75
2022-08-12T15:54:35.109Z,32.42
2022-08-12T15:57:07.813Z,32.45
2022-08-12T16:00:00.527Z,32.90
2022-08-12T16:02:29.485Z,33.25
2022-08-12T16:04:57.456Z,32.93
2022-08-12T16:07:29.962Z,33.39
2022-08-12T16:10:07.018Z,32.98
2022-08-12T16:12:55.130Z,33.74
2022-08-12T16:15:26.360Z,33.75
2022-08-12T16:18:14.781Z,34.02
2022-08-12T16:20:46.828Z,33.37
2022-08-12T16:23:36.043Z,33.13
2022-08-12T16:26:15.306Z,32.28
2022-08-12T16:28:48.231Z,32.97
2022-08-12T16:31:23.452Z,33.23
2022-08-12T16:33:59.001Z,33.15
2022-08-12T16:36:29.552Z,33.33
2022-08-12T16:38:56.903Z,33.62
2022-08-12T16:41:24.356Z,33.50
2022-08-12T16:43:55.273Z,33.47
2022-08-12T16:46:33.349Z,34.77
2022-08-12T16:49:09.338Z,34.71
2022-08-12T16:51:46.314Z,35.70
2022-08-12T16:54:17.274Z,38.16
2022-08-12T16:56:54.495Z,40.14
2022-08-12T16:59:31.100Z,42.45
2022-08-12T17:02:18.089Z,43.49
2022-08-12T17:05:03.157Z,43.10
2022-08-12T17:07:36.856Z,42.72
2022-08-12T17:10:09.804Z,42.52
2022-08-12T17:12:39.391Z,42.25
2022-08-12T17:15:51.215Z,43.01
2022-08-12T17:18:42.624Z,43.55
2022-08-12T17:20:47.439Z,43.17
2022-08-12T17:23:19.682Z,42.40
2022-08-12T17:25:50.644Z,42.59
2022-08-12T17:28:19.314Z,42.15
2022-08-12T17:30:57.490Z,42.08
2022-08-12T17:33:33.690Z,42.04
2022-08-12T17:36:03.342Z,41.87
2022-08-12T17:38:30.635Z,42.12
2022-08-12T17:40:57.948Z,41.62
2022-08-12T17:43:51.805Z,41.51
2022-08-12T17:46:24.200Z,41.39
2022-08-12T17:48:59.952Z,41.37
2022-08-12T17:51:31.599Z,41.27
2022-08-12T17:54:10.109Z,41.17
2022-08-12T17:56:39.352Z,41.15
2022-08-12T17:59:12.404Z,41.51
2022-08-12T18:01:45.349Z,41.25
2022-08-12T18:04:21.852Z,40.98
2022-08-12T18:06:55.700Z,41.15
2022-08-12T18:09:32.138Z,41.31
2022-08-12T18:12:24.634Z,41.25
2022-08-12T18:14:58.776Z,41.13
2022-08-12T18:17:27.254Z,41.44
2022-08-12T18:20:05.626Z,41.51
2022-08-12T18:22:35.351Z,41.58
2022-08-12T18:25:06.817Z,41.55
2022-08-12T18:28:15.967Z,41.90
2022-08-12T18:30:52.727Z,41.83
2022-08-12T18:33:25.812Z,42.20
2022-08-12T18:35:56.696Z,42.47
2022-08-12T18:38:26.256Z,43.00
2022-08-12T18:41:21.917Z,42.56
2022-08-12T18:44:02.818Z,42.89
2022-08-12T18:46:54.149Z,42.98
2022-08-12T18:49:39.726Z,42.80
2022-08-12T18:52:11.486Z,43.11
2022-08-12T18:54:52.950Z,43.38
2022-08-12T18:58:06.404Z,42.88
2022-08-12T19:00:21.331Z,42.99
2022-08-12T19:02:51.218Z,42.69
2022-08-12T19:05:18.320Z,42.53
2022-08-12T19:08:01.748Z,42.74
2022-08-12T19:10:31.332Z,43.00
2022-08-12T19:13:23.004Z,42.89
2022-08-12T19:15:58.017Z,42.98
2022-08-12T19:18:31.842Z,43.01
2022-08-12T19:21:11.960Z,42.59
2022-08-12T19:23:44.139Z,42.70
2022-08-12T19:26:12.799Z,42.66
2022-08-12T19:28:41.364Z,42.42
2022-08-12T19:31:55.438Z,42.24
2022-08-12T19:37:38.673Z,42.45
2022-08-12T19:40:31.361Z,42.14
2022-08-12T19:43:22.019Z,42.10
2022-08-12T19:45:56.788Z,41.67
2022-08-12T19:48:30.792Z,41.82
2022-08-12T19:51:09.257Z,41.81
2022-08-12T19:53:58.096Z,41.43
2022-08-12T19:56:28.259Z,41.82
2022-08-12T19:59:18.749Z,41.92
2022-08-12T20:02:03.354Z,42.12
2022-08-12T20:04:37.771Z,41.57
2022-08-12T20:07:06.750Z,41.65
2022-08-12T20:09:39.718Z,41.54
2022-08-12T20:12:09.350Z,41.57
2022-08-12T20:14:43.716Z,41.49
2022-08-12T20:17:11.388Z,41.64
2022-08-12T20:20:05.611Z,41.75
2022-08-12T20:22:43.533Z,42.23
2022-08-12T20:25:11.969Z,42.55
2022-08-12T20:28:02.839Z,42.21
2022-08-12T20:30:52.834Z,42.21
2022-08-12T20:33:23.073Z,42.23
2022-08-12T20:36:14.344Z,42.00
2022-08-12T20:38:46.910Z,41.98
2022-08-12T20:41:16.226Z,41.59
2022-08-12T20:43:44.869Z,41.55
2022-08-12T20:46:13.749Z,41.73
2022-08-12T20:48:43.679Z,42.11
2022-08-12T20:51:19.020Z,41.94
2022-08-12T20:53:58.408Z,42.17
2022-08-12T20:56:30.692Z,42.29
2022-08-12T20:59:01.317Z,42.70
2022-08-12T21:01:47.085Z,43.13
2022-08-12T21:04:36.109Z,43.07
2022-08-12T21:07:09.008Z,43.35
2022-08-12T21:09:47.341Z,43.45
2022-08-12T21:12:27.700Z,43.95
2022-08-12T21:15:17.628Z,44.75
2022-08-12T21:18:09.837Z,44.90
2022-08-12T21:20:37.817Z,45.32
2022-08-12T21:23:06.658Z,44.69
2022-08-12T21:25:44.275Z,45.25
2022-08-12T21:28:15.738Z,45.54
2022-08-12T21:31:11.386Z,45.96
2022-08-12T21:33:58.378Z,46.59
2022-08-12T21:36:32.071Z,46.43
2022-08-12T21:39:18.106Z,46.69
2022-08-12T21:41:50.108Z,47.25
2022-08-12T21:44:24.024Z,47.24
2022-08-12T21:47:21.230Z,47.26
2022-08-12T21:50:03.784Z,46.88
2022-08-12T21:52:40.421Z,46.89
2022-08-12T21:55:18.164Z,46.44
2022-08-12T21:57:54.850Z,46.51
2022-08-12T22:00:36.944Z,46.34
2022-08-12T22:04:03.947Z,46.90
2022-08-12T22:06:30.917Z,46.58
2022-08-12T22:09:15.859Z,46.90
2022-08-12T22:11:49.256Z,47.21
2022-08-12T22:14:24.331Z,46.46
2022-08-12T22:16:53.577Z,45.95
2022-08-12T22:19:22.665Z,46.15
2022-08-12T22:21:54.883Z,45.86
2022-08-12T22:24:27.756Z,45.90
2022-08-12T22:26:59.539Z,45.88
2022-08-12T22:30:01.075Z,45.74
2022-08-12T22:32:30.075Z,45.26
2022-08-12T22:35:22.238Z,45.89
2022-08-12T22:37:53.456Z,46.21
2022-08-12T22:40:22.818Z,46.82
2022-08-12T22:43:15.253Z,46.56
2022-08-12T22:46:01.591Z,47.70
2022-08-12T22:48:28.718Z,48.01
2022-08-12T22:50:59.370Z,46.79
2022-08-12T22:53:36.222Z,47.00
2022-08-12T22:56:08.192Z,46.95
2022-08-12T22:58:40.423Z,47.41
2022-08-12T23:01:11.306Z,47.46
2022-08-12T23:03:48.602Z,47.37
2022-08-12T23:06:24.089Z,47.41
2022-08-12T23:08:52.771Z,47.65
2022-08-12T23:11:23.632Z,47.82
2022-08-12T23:13:55.271Z,48.48
2022-08-12T23:16:31.917Z,48.24
2022-08-12T23:19:22.904Z,48.17
2022-08-12T23:22:04.363Z,48.28
2022-08-12T23:24:55.984Z,47.83
2022-08-12T23:27:52.192Z,47.84
2022-08-12T23:30:32.472Z,48.52
2022-08-12T23:33:19.949Z,48.93
2022-08-12T23:35:59.422Z,48.49
2022-08-12T23:38:32.428Z,48.81
2022-08-12T23:41:05.340Z,48.57
2022-08-12T23:43:38.807Z,48.29
2022-08-12T23:46:19.163Z,48.35
2022-08-12T23:48:47.925Z,48.78
2022-08-12T23:51:23.509Z,48.36
2022-08-12T23:53:59.803Z,48.69
2022-08-12T23:56:29.410Z,48.30
2022-08-12T23:58:58.582Z,48.16
